Time;durP1;ratioP1;P1;durP2;ratioP2;P2;SDS_P1;SDS_P2;PMS_P1;PMS_P2;Temp;Humidity;BMP_temperature;BMP_pressure;BME280_temperature;BME280_humidity;BME280_pressure;Samples;Min_cycle;Max_cycle;Signal;HPM_P1;HPM_P2
2022/08/04 00:01:37;;;;;;;11.93;2.30;;;;;;;;;;4983507;28;20061;-45
2022/08/04 00:04:04;;;;;;;10.30;1.67;;;;;;;;;;4995009;28;20046;-46
2022/08/04 00:06:35;;;;;;;8.50;2.40;;;;;;;;;;4989689;28;20046;-44
2022/08/04 00:09:07;;;;;;;11.68;2.17;;;;;;;;;;4978863;28;20042;-44
2022/08/04 00:11:34;;;;;;;9.85;3.25;;;;;;;;;;4982681;28;20050;-46
2022/08/04 00:14:03;;;;;;;9.63;2.10;;;;;;;;;;4970143;28;20124;-45
2022/08/04 00:16:32;;;;;;;9.13;2.15;;;;;;;;;;4995495;28;20400;-45
2022/08/04 00:19:01;;;;;;;9.65;1.77;;;;;;;;;;4981048;28;20064;-45
2022/08/04 00:21:29;;;;;;;11.80;2.42;;;;;;;;;;4979574;28;20041;-45
2022/08/04 00:23:56;;;;;;;12.52;2.70;;;;;;;;;;4991364;28;20069;-46
2022/08/04 00:26:24;;;;;;;11.73;2.03;;;;;;;;;;4993976;28;20372;-46
2022/08/04 00:28:51;;;;;;;6.53;1.60;;;;;;;;;;4996827;28;20490;-46
2022/08/04 00:31:20;;;;;;;9.73;2.55;;;;;;;;;;4985614;28;20038;-45
2022/08/04 00:33:48;;;;;;;12.98;2.75;;;;;;;;;;4992247;28;20042;-46
2022/08/04 00:36:16;;;;;;;8.95;2.30;;;;;;;;;;4989878;28;20111;-50
2022/08/04 00:38:44;;;;;;;12.60;1.80;;;;;;;;;;4999732;28;20042;-47
2022/08/04 00:41:19;;;;;;;14.00;2.60;;;;;;;;;;4982718;28;20436;-47
2022/08/04 00:43:51;;;;;;;10.05;2.08;;;;;;;;;;4982637;28;20092;-47
2022/08/04 00:46:33;;;;;;;9.23;2.08;;;;;;;;;;4983129;28;20108;-48
2022/08/04 00:49:10;;;;;;;9.57;2.10;;;;;;;;;;4997489;28;20046;-45
2022/08/04 00:51:43;;;;;;;10.50;2.33;;;;;;;;;;4989842;28;20045;-48
2022/08/04 00:54:12;;;;;;;16.48;2.40;;;;;;;;;;4989260;28;20037;-49
2022/08/04 00:56:49;;;;;;;11.13;2.38;;;;;;;;;;4985702;28;20050;-44
2022/08/04 00:59:25;;;;;;;11.48;2.13;;;;;;;;;;4979720;28;20038;-48
2022/08/04 01:01:55;;;;;;;10.38;1.65;;;;;;;;;;4993285;28;20039;-47
2022/08/04 01:04:27;;;;;;;9.37;2.00;;;;;;;;;;4994181;28;20034;-44
2022/08/04 01:07:00;;;;;;;11.13;2.28;;;;;;;;;;4987310;28;20046;-45
2022/08/04 01:09:35;;;;;;;7.47;2.00;;;;;;;;;;4976410;28;20529;-45
2022/08/04 01:12:10;;;;;;;13.00;2.47;;;;;;;;;;4947269;28;20050;-45
2022/08/04 01:14:44;;;;;;;12.05;2.75;;;;;;;;;;4984731;28;20046;-44
2022/08/04 01:17:19;;;;;;;10.57;2.00;;;;;;;;;;4978366;28;20724;-45
2022/08/04 01:19:54;;;;;;;12.00;2.65;;;;;;;;;;4971199;28;20046;-46
2022/08/04 01:22:29;;;;;;;7.07;1.73;;;;;;;;;;5008629;28;20034;-46
2022/08/04 01:25:02;;;;;;;12.73;2.25;;;;;;;;;;4979313;28;20061;-44
2022/08/04 01:27:42;;;;;;;9.65;2.05;;;;;;;;;;4998878;28;20085;-44
2022/08/04 01:30:10;;;;;;;12.47;2.07;;;;;;;;;;4965542;28;20038;-45
2022/08/04 01:32:37;;;;;;;8.80;1.73;;;;;;;;;;5002998;28;20037;-45
2022/08/04 01:35:06;;;;;;;9.15;1.52;;;;;;;;;;4947630;28;20283;-46
2022/08/04 01:37:38;;;;;;;9.48;1.63;;;;;;;;;;4982900;28;20080;-49
2022/08/04 01:40:06;;;;;;;8.43;1.80;;;;;;;;;;4987255;28;20034;-45
2022/08/04 01:42:33;;;;;;;8.53;2.23;;;;;;;;;;4993277;28;20030;-47
2022/08/04 01:45:00;;;;;;;7.40;1.80;;;;;;;;;;4994973;28;20038;-46
2022/08/04 01:47:29;;;;;;;10.38;1.50;;;;;;;;;;5001582;28;20046;-45
2022/08/04 01:50:00;;;;;;;8.30;1.50;;;;;;;;;;4980012;28;20784;-45
2022/08/04 01:52:27;;;;;;;5.88;1.67;;;;;;;;;;4988788;28;20669;-44
2022/08/04 01:54:55;;;;;;;7.17;2.20;;;;;;;;;;4999823;28;20908;-48
2022/08/04 01:57:23;;;;;;;10.63;1.67;;;;;;;;;;4984605;28;20108;-45
2022/08/04 01:59:51;;;;;;;9.98;1.90;;;;;;;;;;5005154;28;20034;-44
2022/08/04 02:02:17;;;;;;;10.40;1.92;;;;;;;;;;4996366;28;20045;-46
2022/08/04 02:04:45;;;;;;;10.88;1.95;;;;;;;;;;4986951;28;20068;-45
2022/08/04 02:07:20;;;;;;;8.37;1.50;;;;;;;;;;5005839;28;20042;-45
2022/08/04 02:09:52;;;;;;;8.13;1.67;;;;;;;;;;4995195;28;20048;-47
2022/08/04 02:12:23;;;;;;;8.77;2.50;;;;;;;;;;4997715;28;20101;-49
2022/08/04 02:14:55;;;;;;;8.68;1.90;;;;;;;;;;4991703;28;20042;-46
2022/08/04 02:17:24;;;;;;;9.48;1.92;;;;;;;;;;4998042;28;20038;-45
2022/08/04 02:20:01;;;;;;;9.57;1.73;;;;;;;;;;4993167;28;20042;-46
2022/08/04 02:22:28;;;;;;;10.43;2.00;;;;;;;;;;4992150;28;20057;-48
2022/08/04 02:24:58;;;;;;;8.50;2.45;;;;;;;;;;5007098;28;20038;-45
2022/08/04 02:27:27;;;;;;;8.43;2.08;;;;;;;;;;4990816;28;20041;-45
2022/08/04 02:29:56;;;;;;;10.00;2.10;;;;;;;;;;5002014;28;20104;-45
2022/08/04 02:32:26;;;;;;;7.87;2.17;;;;;;;;;;4995499;28;20037;-47
2022/08/04 02:34:54;;;;;;;10.35;2.20;;;;;;;;;;4989967;28;20046;-46
2022/08/04 02:37:24;;;;;;;8.85;1.95;;;;;;;;;;4996049;28;20500;-46
2022/08/04 02:39:52;;;;;;;12.02;2.28;;;;;;;;;;4989069;28;20042;-46
2022/08/04 02:42:19;;;;;;;8.93;1.88;;;;;;;;;;4990186;28;20042;-45
2022/08/04 02:44:48;;;;;;;14.60;2.77;;;;;;;;;;4979979;28;20104;-48
2022/08/04 02:47:14;;;;;;;6.93;2.28;;;;;;;;;;5002822;28;20109;-46
2022/08/04 02:49:41;;;;;;;13.38;2.30;;;;;;;;;;4980358;28;20778;-49
2022/08/04 02:52:09;;;;;;;10.90;2.58;;;;;;;;;;5005491;28;20077;-46
2022/08/04 02:54:40;;;;;;;10.95;2.20;;;;;;;;;;4991674;28;20810;-45
2022/08/04 02:57:08;;;;;;;11.33;2.63;;;;;;;;;;5012900;28;20042;-45
2022/08/04 02:59:41;;;;;;;12.80;3.33;;;;;;;;;;4990903;28;24931;-46
2022/08/04 03:02:07;;;;;;;12.55;2.63;;;;;;;;;;5000583;28;20042;-47
2022/08/04 03:04:43;;;;;;;11.88;2.47;;;;;;;;;;4982797;28;20045;-46
2022/08/04 03:07:39;;;;;;;12.13;2.92;;;;;;;;;;5006964;28;20041;-45
2022/08/04 03:10:21;;;;;;;10.47;2.33;;;;;;;;;;5000031;28;20163;-46
2022/08/04 03:13:12;;;;;;;12.85;2.35;;;;;;;;;;5012428;28;20106;-50
2022/08/04 03:15:55;;;;;;;11.10;2.40;;;;;;;;;;4930511;28;20079;-47
2022/08/04 03:18:45;;;;;;;9.75;2.10;;;;;;;;;;4985944;28;20172;-48
2022/08/04 03:21:44;;;;;;;13.27;2.25;;;;;;;;;;5002340;28;20491;-48
2022/08/04 03:24:42;;;;;;;8.17;1.83;;;;;;;;;;4966672;28;20080;-46
2022/08/04 03:27:14;;;;;;;8.85;2.33;;;;;;;;;;4973868;28;20110;-47
2022/08/04 03:30:14;;;;;;;9.23;2.25;;;;;;;;;;4992801;28;20051;-47
2022/08/04 03:32:55;;;;;;;12.07;2.10;;;;;;;;;;4972592;28;20731;-48
2022/08/04 03:35:36;;;;;;;8.25;1.80;;;;;;;;;;4952306;28;20050;-46
2022/08/04 03:38:19;;;;;;;7.83;1.70;;;;;;;;;;4989048;28;20200;-47
2022/08/04 03:40:58;;;;;;;8.40;2.20;;;;;;;;;;4982449;28;20046;-45
2022/08/04 03:43:31;;;;;;;7.25;2.15;;;;;;;;;;4989303;28;20081;-46
2022/08/04 03:46:15;;;;;;;9.55;2.17;;;;;;;;;;5007148;28;20046;-46
2022/08/04 03:49:02;;;;;;;8.13;1.70;;;;;;;;;;5002575;28;20046;-49
2022/08/04 03:54:46;;;;;;;10.10;1.90;;;;;;;;;;4987144;28;20120;-46
2022/08/04 03:57:22;;;;;;;10.57;2.13;;;;;;;;;;4960390;28;20057;-45
2022/08/04 03:59:54;;;;;;;12.73;2.22;;;;;;;;;;4996157;28;20042;-45
2022/08/04 04:02:35;;;;;;;15.23;2.03;;;;;;;;;;4995108;28;20054;-44
2022/08/04 04:05:20;;;;;;;11.97;3.23;;;;;;;;;;4998203;28;20488;-46
2022/08/04 04:07:58;;;;;;;10.90;1.73;;;;;;;;;;4992318;28;20041;-46
2022/08/04 04:10:34;;;;;;;9.23;2.10;;;;;;;;;;4999229;28;20574;-46
2022/08/04 04:13:13;;;;;;;8.20;2.40;;;;;;;;;;5002180;28;20184;-47
2022/08/04 04:15:58;;;;;;;9.45;2.05;;;;;;;;;;4976578;28;21082;-48
2022/08/04 04:18:37;;;;;;;9.63;2.00;;;;;;;;;;4996352;28;20049;-47
2022/08/04 04:21:18;;;;;;;9.88;2.20;;;;;;;;;;4996784;28;20065;-47
2022/08/04 04:23:57;;;;;;;10.00;3.13;;;;;;;;;;4987862;28;20752;-46
2022/08/04 04:26:40;;;;;;;13.65;2.30;;;;;;;;;;5000416;28;20053;-45
2022/08/04 04:29:15;;;;;;;10.35;2.13;;;;;;;;;;4997974;28;20033;-46
2022/08/04 04:32:03;;;;;;;9.40;2.10;;;;;;;;;;4991818;28;20387;-46
2022/08/04 04:34:39;;;;;;;11.07;2.78;;;;;;;;;;4993677;28;20830;-46
2022/08/04 04:37:13;;;;;;;10.45;2.70;;;;;;;;;;4996909;28;20635;-45
2022/08/04 04:39:43;;;;;;;10.45;2.10;;;;;;;;;;4991914;28;20057;-46
2022/08/04 04:42:27;;;;;;;10.35;2.15;;;;;;;;;;4997201;28;20496;-47
2022/08/04 04:45:08;;;;;;;8.07;2.27;;;;;;;;;;4960506;28;20248;-48
2022/08/04 04:47:40;;;;;;;8.85;1.80;;;;;;;;;;4973125;28;20038;-48
2022/08/04 04:50:09;;;;;;;9.25;2.35;;;;;;;;;;4978237;28;20046;-46
2022/08/04 04:52:40;;;;;;;15.52;2.15;;;;;;;;;;4988944;28;20050;-46
2022/08/04 04:55:10;;;;;;;9.95;2.28;;;;;;;;;;4991483;28;20061;-46
2022/08/04 04:57:37;;;;;;;13.67;2.57;;;;;;;;;;4991621;28;20050;-46
2022/08/04 05:00:07;;;;;;;10.82;1.85;;;;;;;;;;4990942;28;20114;-47
2022/08/04 05:02:48;;;;;;;8.85;2.10;;;;;;;;;;4986806;28;20117;-45
2022/08/04 05:05:21;;;;;;;6.18;1.70;;;;;;;;;;4994906;28;20092;-45
2022/08/04 05:08:02;;;;;;;11.32;2.47;;;;;;;;;;4992055;28;20042;-45
2022/08/04 05:10:38;;;;;;;10.70;2.83;;;;;;;;;;4977412;28;20482;-46
2022/08/04 05:13:19;;;;;;;18.63;2.83;;;;;;;;;;5001437;28;20064;-47
2022/08/04 05:15:47;;;;;;;9.90;1.60;;;;;;;;;;4980362;28;21095;-45
2022/08/04 05:18:16;;;;;;;8.68;2.05;;;;;;;;;;4986998;28;20096;-48
2022/08/04 05:20:45;;;;;;;9.02;2.65;;;;;;;;;;4986101;28;20037;-46
2022/08/04 05:23:13;;;;;;;8.43;2.30;;;;;;;;;;4984083;28;20046;-48
2022/08/04 05:25:43;;;;;;;14.73;2.45;;;;;;;;;;4994159;28;20112;-47
2022/08/04 05:28:12;;;;;;;13.85;2.55;;;;;;;;;;4998256;28;20038;-45
2022/08/04 05:30:47;;;;;;;12.75;2.65;;;;;;;;;;4990718;28;20050;-45
2022/08/04 05:33:15;;;;;;;9.85;2.60;;;;;;;;;;4990715;28;20093;-46
2022/08/04 05:35:44;;;;;;;13.27;2.03;;;;;;;;;;4986366;28;20089;-45
2022/08/04 05:38:11;;;;;;;11.05;2.58;;;;;;;;;;4995935;28;20508;-47
2022/08/04 05:40:38;;;;;;;9.30;2.30;;;;;;;;;;4981122;28;20042;-48
2022/08/04 05:43:07;;;;;;;13.40;2.88;;;;;;;;;;4989411;28;20112;-46
2022/08/04 05:45:34;;;;;;;14.43;3.20;;;;;;;;;;4986977;28;20074;-47
2022/08/04 05:48:01;;;;;;;13.07;2.80;;;;;;;;;;4982373;28;20046;-47
2022/08/04 05:50:28;;;;;;;6.78;1.95;;;;;;;;;;5004561;28;20053;-46
2022/08/04 05:52:55;;;;;;;10.43;2.40;;;;;;;;;;5018267;28;20564;-48
2022/08/04 05:55:22;;;;;;;7.20;2.33;;;;;;;;;;5015660;28;20041;-46
2022/08/04 05:57:49;;;;;;;11.52;2.83;;;;;;;;;;5024718;28;20678;-45
2022/08/04 06:00:18;;;;;;;14.80;3.00;;;;;;;;;;5016616;28;20041;-47
2022/08/04 06:02:44;;;;;;;10.90;2.88;;;;;;;;;;5010414;28;20029;-46
2022/08/04 06:05:13;;;;;;;8.20;2.78;;;;;;;;;;5027184;28;20046;-46
2022/08/04 06:07:40;;;;;;;8.90;2.17;;;;;;;;;;5017188;28;20517;-47
2022/08/04 06:10:07;;;;;;;9.48;2.30;;;;;;;;;;5026913;28;20041;-48
2022/08/04 06:12:36;;;;;;;9.37;2.30;;;;;;;;;;5012463;28;20034;-47
2022/08/04 06:15:04;;;;;;;13.13;2.63;;;;;;;;;;5002242;28;20535;-47
2022/08/04 06:17:33;;;;;;;9.88;2.53;;;;;;;;;;5010341;28;20040;-47
2022/08/04 06:20:01;;;;;;;13.88;3.15;;;;;;;;;;5029566;28;20095;-47
2022/08/04 06:22:29;;;;;;;9.55;2.65;;;;;;;;;;5020093;28;20103;-45
2022/08/04 06:24:56;;;;;;;13.37;2.37;;;;;;;;;;5019199;28;20088;-45
2022/08/04 06:27:23;;;;;;;13.52;3.40;;;;;;;;;;5017437;28;20362;-50
2022/08/04 06:29:50;;;;;;;7.20;1.95;;;;;;;;;;5020067;28;20049;-48
2022/08/04 06:32:27;;;;;;;12.95;2.40;;;;;;;;;;5010726;28;20041;-45
2022/08/04 06:34:57;;;;;;;11.93;1.92;;;;;;;;;;5021200;28;20041;-46
2022/08/04 06:37:25;;;;;;;13.40;2.37;;;;;;;;;;5018328;28;20060;-44
2022/08/04 06:39:51;;;;;;;10.63;2.75;;;;;;;;;;5013952;28;20049;-47
2022/08/04 06:42:19;;;;;;;11.68;2.22;;;;;;;;;;5015814;28;20044;-45
2022/08/04 06:44:46;;;;;;;12.50;2.20;;;;;;;;;;5016952;28;20623;-47
2022/08/04 06:47:13;;;;;;;9.73;2.60;;;;;;;;;;5010245;28;20029;-45
2022/08/04 06:49:39;;;;;;;10.83;2.37;;;;;;;;;;5018105;28;20041;-46
2022/08/04 06:52:07;;;;;;;9.02;2.05;;;;;;;;;;4995436;28;20054;-48
2022/08/04 06:54:34;;;;;;;15.20;2.75;;;;;;;;;;4994515;28;20041;-47
2022/08/04 06:57:01;;;;;;;8.82;2.40;;;;;;;;;;5008312;28;20045;-45
2022/08/04 06:59:28;;;;;;;11.77;2.47;;;;;;;;;;4982968;28;20034;-48
2022/08/04 07:01:55;;;;;;;10.23;2.23;;;;;;;;;;4994221;28;20054;-49
2022/08/04 07:04:23;;;;;;;9.20;2.10;;;;;;;;;;4997129;28;20038;-46
2022/08/04 07:06:49;;;;;;;9.82;2.20;;;;;;;;;;5002668;28;20069;-46
2022/08/04 07:09:17;;;;;;;8.80;2.30;;;;;;;;;;4982133;28;20511;-46
2022/08/04 07:11:46;;;;;;;10.23;2.38;;;;;;;;;;4990693;28;20145;-46
2022/08/04 07:14:12;;;;;;;9.73;1.90;;;;;;;;;;4980976;28;20042;-48
2022/08/04 07:16:39;;;;;;;7.05;2.30;;;;;;;;;;4999044;28;20053;-47
2022/08/04 07:19:06;;;;;;;7.55;2.53;;;;;;;;;;4983367;28;20105;-47
2022/08/04 07:21:35;;;;;;;10.00;2.30;;;;;;;;;;5001133;28;20077;-49
2022/08/04 07:24:02;;;;;;;10.10;2.90;;;;;;;;;;4982894;28;20042;-47
2022/08/04 07:26:30;;;;;;;10.17;2.50;;;;;;;;;;5003978;28;20069;-48
2022/08/04 07:28:58;;;;;;;9.88;2.70;;;;;;;;;;4978938;28;20125;-49
2022/08/04 07:31:24;;;;;;;10.98;2.80;;;;;;;;;;4973730;28;20132;-48
2022/08/04 07:33:52;;;;;;;9.93;2.45;;;;;;;;;;4991281;28;20077;-52
2022/08/04 07:36:18;;;;;;;8.70;2.22;;;;;;;;;;5003970;28;20119;-48
2022/08/04 07:38:45;;;;;;;7.90;1.93;;;;;;;;;;4975164;28;20057;-46
2022/08/04 07:41:12;;;;;;;7.70;1.92;;;;;;;;;;4967894;28;20043;-45
2022/08/04 07:43:40;;;;;;;7.60;2.00;;;;;;;;;;4985362;28;20045;-48
2022/08/04 07:46:07;;;;;;;7.63;2.03;;;;;;;;;;4997449;28;20057;-48
2022/08/04 07:48:34;;;;;;;9.18;2.15;;;;;;;;;;4990336;28;20042;-48
2022/08/04 07:51:00;;;;;;;7.53;1.97;;;;;;;;;;4986973;28;20050;-47
2022/08/04 07:53:27;;;;;;;11.32;2.33;;;;;;;;;;4994438;28;20038;-47
2022/08/04 07:55:55;;;;;;;12.05;3.10;;;;;;;;;;4991789;28;20049;-45
2022/08/04 07:58:22;;;;;;;9.13;2.50;;;;;;;;;;4995199;28;20039;-46
2022/08/04 08:00:50;;;;;;;10.20;2.05;;;;;;;;;;4996547;28;20077;-49
2022/08/04 08:03:18;;;;;;;9.27;1.80;;;;;;;;;;4994270;28;21537;-51
2022/08/04 08:05:45;;;;;;;9.45;2.55;;;;;;;;;;4999020;28;20574;-50
2022/08/04 08:08:11;;;;;;;6.05;1.65;;;;;;;;;;4989972;28;20049;-47
2022/08/04 08:10:39;;;;;;;13.38;2.67;;;;;;;;;;4991910;28;20049;-46
2022/08/04 08:13:07;;;;;;;7.72;1.92;;;;;;;;;;4984918;28;20072;-46
2022/08/04 08:15:33;;;;;;;6.07;1.57;;;;;;;;;;4986357;28;20072;-50
2022/08/04 08:18:01;;;;;;;8.60;1.95;;;;;;;;;;4985021;28;20203;-46
2022/08/04 08:20:30;;;;;;;7.82;1.63;;;;;;;;;;4992524;28;20044;-45
2022/08/04 08:22:57;;;;;;;7.13;1.75;;;;;;;;;;4994220;28;20049;-48
2022/08/04 08:25:24;;;;;;;7.43;2.70;;;;;;;;;;4990946;28;20042;-48
2022/08/04 08:27:50;;;;;;;8.40;2.07;;;;;;;;;;4287923;28;10000622;-49
2022/08/04 08:30:17;;;;;;;12.50;2.03;;;;;;;;;;4992712;28;20067;-49
2022/08/04 08:32:44;;;;;;;8.80;1.60;;;;;;;;;;4985815;28;20474;-47
2022/08/04 08:35:12;;;;;;;10.27;2.53;;;;;;;;;;4988870;28;20038;-52
2022/08/04 08:37:41;;;;;;;9.85;2.05;;;;;;;;;;4989725;28;20050;-47
2022/08/04 08:40:15;;;;;;;7.88;1.85;;;;;;;;;;4633701;28;10000553;-48
2022/08/04 08:42:47;;;;;;;4.65;1.45;;;;;;;;;;4935121;28;20405;-50
2022/08/04 08:45:24;;;;;;;7.53;1.50;;;;;;;;;;4987749;28;20853;-50
2022/08/04 08:48:04;;;;;;;5.57;1.38;;;;;;;;;;4996014;28;20919;-48
2022/08/04 08:50:49;;;;;;;5.63;1.40;;;;;;;;;;4971479;28;20054;-48
2022/08/04 08:53:40;;;;;;;5.30;1.75;;;;;;;;;;4995333;28;20046;-50
2022/08/04 08:56:17;;;;;;;5.28;1.15;;;;;;;;;;4925686;28;20059;-50
2022/08/04 08:58:50;;;;;;;5.77;1.37;;;;;;;;;;4995584;28;20037;-50
2022/08/04 09:01:24;;;;;;;4.38;1.23;;;;;;;;;;4973419;28;20040;-51
2022/08/04 09:04:09;;;;;;;5.28;1.35;;;;;;;;;;5004928;28;20038;-50
2022/08/04 09:06:41;;;;;;;5.88;1.30;;;;;;;;;;4992881;28;20068;-49
2022/08/04 09:09:25;;;;;;;4.95;1.00;;;;;;;;;;4993998;28;20058;-47
2022/08/04 09:11:58;;;;;;;6.37;1.03;;;;;;;;;;4997534;28;20128;-48
2022/08/04 09:14:28;;;;;;;4.15;1.02;;;;;;;;;;4976205;28;20673;-49
2022/08/04 09:16:57;;;;;;;4.03;1.00;;;;;;;;;;4991188;28;20050;-50
2022/08/04 09:19:28;;;;;;;4.00;1.15;;;;;;;;;;4995397;28;20034;-47
2022/08/04 09:21:59;;;;;;;7.82;1.67;;;;;;;;;;5005472;28;20108;-49
2022/08/04 09:24:29;;;;;;;7.33;1.10;;;;;;;;;;4995231;28;20065;-48
2022/08/04 09:26:58;;;;;;;4.15;1.00;;;;;;;;;;5005875;28;20038;-50
2022/08/04 09:29:30;;;;;;;6.05;0.90;;;;;;;;;;4994148;28;20037;-48
2022/08/04 09:31:59;;;;;;;4.95;0.90;;;;;;;;;;4993717;28;20064;-50
2022/08/04 09:34:31;;;;;;;5.03;1.10;;;;;;;;;;4998025;28;20026;-50
2022/08/04 09:37:03;;;;;;;4.03;1.17;;;;;;;;;;4998082;28;20050;-48
2022/08/04 09:39:34;;;;;;;3.95;1.10;;;;;;;;;;4993290;28;20048;-48
2022/08/04 09:42:03;;;;;;;4.72;1.25;;;;;;;;;;4996560;28;20042;-47
2022/08/04 09:44:39;;;;;;;4.28;0.90;;;;;;;;;;5008372;28;20045;-46
2022/08/04 09:47:10;;;;;;;5.15;1.20;;;;;;;;;;4991419;28;20539;-49
2022/08/04 09:49:40;;;;;;;6.13;1.30;;;;;;;;;;4985353;28;20061;-46
2022/08/04 09:52:11;;;;;;;5.13;0.93;;;;;;;;;;4997758;28;20143;-49
2022/08/04 09:54:45;;;;;;;5.22;0.90;;;;;;;;;;4985181;28;20046;-48
2022/08/04 09:57:14;;;;;;;4.97;1.00;;;;;;;;;;4985500;28;20088;-47
2022/08/04 09:59:42;;;;;;;2.72;0.70;;;;;;;;;;4997574;28;20049;-47
2022/08/04 10:02:11;;;;;;;3.80;0.60;;;;;;;;;;4989387;28;20073;-49
2022/08/04 10:04:40;;;;;;;3.28;0.80;;;;;;;;;;4956171;28;20048;-48
2022/08/04 10:07:27;;;;;;;3.60;0.88;;;;;;;;;;4994235;28;20042;-49
2022/08/04 10:10:02;;;;;;;3.97;1.13;;;;;;;;;;4981726;28;20046;-49
2022/08/04 10:12:31;;;;;;;4.25;0.80;;;;;;;;;;4981035;28;20432;-51
2022/08/04 10:15:03;;;;;;;3.23;0.63;;;;;;;;;;4994646;28;20058;-47
2022/08/04 10:17:38;;;;;;;3.78;0.70;;;;;;;;;;4964238;28;20060;-48
2022/08/04 10:20:08;;;;;;;2.90;0.70;;;;;;;;;;4965181;28;20517;-48
2022/08/04 10:22:37;;;;;;;2.45;0.70;;;;;;;;;;4983554;28;20045;-50
2022/08/04 10:25:09;;;;;;;3.30;0.60;;;;;;;;;;4976889;28;20069;-50
2022/08/04 10:27:38;;;;;;;2.70;0.50;;;;;;;;;;4995633;28;20050;-51
2022/08/04 10:30:10;;;;;;;4.72;0.60;;;;;;;;;;4994088;28;20042;-48
2022/08/04 10:32:42;;;;;;;4.13;1.00;;;;;;;;;;4987850;28;20050;-48
2022/08/04 10:35:10;;;;;;;4.93;1.23;;;;;;;;;;4985891;28;20066;-50
2022/08/04 10:37:40;;;;;;;2.95;0.50;;;;;;;;;;4994740;28;20030;-46
2022/08/04 10:42:59;;;;;;;2.38;0.40;;;;;;;;;;4637340;28;10001367;-48
2022/08/04 10:45:27;;;;;;;4.47;0.50;;;;;;;;;;4997986;28;20065;-52
2022/08/04 10:47:57;;;;;;;2.78;0.50;;;;;;;;;;4983709;28;20045;-50
2022/08/04 10:50:24;;;;;;;3.28;0.70;;;;;;;;;;4989057;28;20061;-48
2022/08/04 10:52:54;;;;;;;3.47;0.80;;;;;;;;;;4993317;28;20060;-48
2022/08/04 10:55:25;;;;;;;4.55;0.60;;;;;;;;;;4983820;28;20097;-49
2022/08/04 10:57:52;;;;;;;4.18;0.85;;;;;;;;;;4999750;28;20133;-50
2022/08/04 11:00:22;;;;;;;4.03;0.70;;;;;;;;;;4986427;28;20069;-51
2022/08/04 11:02:52;;;;;;;4.20;0.80;;;;;;;;;;4989196;28;20110;-48
2022/08/04 11:05:21;;;;;;;4.13;0.90;;;;;;;;;;4988214;28;20041;-47
2022/08/04 11:07:51;;;;;;;3.83;0.90;;;;;;;;;;4991794;28;20038;-51
2022/08/04 11:10:20;;;;;;;2.83;0.70;;;;;;;;;;4993903;28;20061;-50
2022/08/04 11:12:49;;;;;;;3.70;1.10;;;;;;;;;;4986333;28;20057;-49
2022/08/04 11:15:18;;;;;;;2.85;0.70;;;;;;;;;;4978736;28;20037;-50
2022/08/04 11:17:46;;;;;;;2.70;0.50;;;;;;;;;;4997005;28;20052;-54
2022/08/04 11:20:16;;;;;;;3.40;0.70;;;;;;;;;;4980092;28;20038;-48
2022/08/04 11:22:47;;;;;;;2.70;0.60;;;;;;;;;;5001213;28;20339;-48
2022/08/04 11:25:19;;;;;;;4.40;0.93;;;;;;;;;;4985258;28;20049;-48
2022/08/04 11:28:01;;;;;;;3.60;0.80;;;;;;;;;;4991523;28;20042;-50
2022/08/04 11:30:31;;;;;;;2.67;0.60;;;;;;;;;;4995589;28;20064;-52
2022/08/04 11:33:02;;;;;;;4.88;0.90;;;;;;;;;;4982548;28;20058;-51
2022/08/04 11:35:30;;;;;;;2.92;0.80;;;;;;;;;;4991908;28;20042;-51
2022/08/04 11:38:01;;;;;;;5.60;0.60;;;;;;;;;;4991667;28;20456;-51
2022/08/04 11:40:29;;;;;;;5.28;1.75;;;;;;;;;;4993150;28;20080;-51
2022/08/04 11:43:01;;;;;;;3.80;0.70;;;;;;;;;;4992216;28;20564;-50
2022/08/04 11:45:30;;;;;;;4.65;0.50;;;;;;;;;;4988203;28;20034;-50
2022/08/04 11:47:59;;;;;;;3.70;0.80;;;;;;;;;;4990569;28;20092;-48
2022/08/04 11:50:28;;;;;;;3.17;0.50;;;;;;;;;;4993339;28;20050;-52
2022/08/04 11:52:56;;;;;;;4.13;0.80;;;;;;;;;;4985831;28;20636;-53
2022/08/04 11:55:26;;;;;;;3.30;0.60;;;;;;;;;;4990903;28;20038;-49
2022/08/04 11:57:52;;;;;;;2.97;0.60;;;;;;;;;;4986183;28;20037;-47
2022/08/04 12:00:22;;;;;;;2.47;0.40;;;;;;;;;;4982049;28;20034;-50
2022/08/04 12:03:12;;;;;;;3.20;0.73;;;;;;;;;;4985643;28;21689;-46
2022/08/04 12:05:44;;;;;;;4.68;0.70;;;;;;;;;;4970637;28;20061;-47
2022/08/04 12:08:19;;;;;;;3.30;0.60;;;;;;;;;;4976942;28;20053;-47
2022/08/04 12:10:50;;;;;;;2.92;0.68;;;;;;;;;;4962526;28;20048;-47
2022/08/04 12:13:25;;;;;;;3.45;0.40;;;;;;;;;;4966393;28;21060;-48
2022/08/04 12:15:57;;;;;;;3.58;0.70;;;;;;;;;;4963783;28;20358;-47
2022/08/04 12:18:27;;;;;;;2.78;0.75;;;;;;;;;;4985899;28;20041;-48
2022/08/04 12:20:57;;;;;;;3.47;0.70;;;;;;;;;;4999739;28;20069;-48
2022/08/04 12:23:24;;;;;;;2.95;0.80;;;;;;;;;;4975848;28;20042;-50
2022/08/04 12:25:53;;;;;;;3.17;0.60;;;;;;;;;;5000775;28;20050;-49
2022/08/04 12:28:24;;;;;;;4.00;0.90;;;;;;;;;;4994636;28;20038;-48
2022/08/04 12:30:55;;;;;;;3.97;0.70;;;;;;;;;;4980408;28;20042;-48
2022/08/04 12:33:24;;;;;;;2.47;0.70;;;;;;;;;;4288237;28;10000839;-48
2022/08/04 12:35:54;;;;;;;4.90;1.40;;;;;;;;;;4967373;28;20038;-50
2022/08/04 12:38:25;;;;;;;4.70;0.77;;;;;;;;;;4988505;28;20084;-46
2022/08/04 12:40:54;;;;;;;3.22;0.65;;;;;;;;;;4976387;28;20141;-47
2022/08/04 12:43:23;;;;;;;5.30;0.73;;;;;;;;;;4986837;28;20038;-52
2022/08/04 12:45:50;;;;;;;5.03;0.93;;;;;;;;;;4996227;28;20043;-51
2022/08/04 12:48:17;;;;;;;4.00;0.77;;;;;;;;;;4975942;28;20724;-49
2022/08/04 12:50:48;;;;;;;3.55;0.88;;;;;;;;;;4996266;28;20068;-52
2022/08/04 12:53:16;;;;;;;3.30;0.60;;;;;;;;;;4987367;28;20053;-50
2022/08/04 12:55:45;;;;;;;3.47;0.63;;;;;;;;;;4991949;28;20046;-50
2022/08/04 12:58:13;;;;;;;3.00;0.90;;;;;;;;;;4984158;28;20776;-49
2022/08/04 13:00:40;;;;;;;3.43;0.70;;;;;;;;;;4641188;28;10000030;-48
2022/08/04 13:03:09;;;;;;;3.25;0.63;;;;;;;;;;4982708;28;20069;-47
2022/08/04 13:05:37;;;;;;;4.20;0.57;;;;;;;;;;4977111;28;20073;-50
2022/08/04 13:08:06;;;;;;;5.35;0.75;;;;;;;;;;4988235;28;20592;-46
2022/08/04 13:10:36;;;;;;;4.28;0.75;;;;;;;;;;4988844;28;20046;-49
2022/08/04 13:13:04;;;;;;;3.93;0.50;;;;;;;;;;4995226;28;20044;-51
2022/08/04 13:15:32;;;;;;;2.78;0.40;;;;;;;;;;4987978;28;20050;-50
2022/08/04 13:17:59;;;;;;;4.70;0.73;;;;;;;;;;4984840;28;20046;-48
2022/08/04 13:20:27;;;;;;;3.58;0.60;;;;;;;;;;4960413;28;20039;-50
2022/08/04 13:23:03;;;;;;;2.85;0.50;;;;;;;;;;4995413;28;20143;-50
2022/08/04 13:25:31;;;;;;;3.63;0.77;;;;;;;;;;4993027;28;20043;-48
2022/08/04 13:27:59;;;;;;;4.38;0.80;;;;;;;;;;4981765;28;20064;-48
2022/08/04 13:30:27;;;;;;;3.08;0.82;;;;;;;;;;4995863;28;20456;-46
2022/08/04 13:32:56;;;;;;;3.15;0.60;;;;;;;;;;4992218;28;20041;-51
2022/08/04 13:35:23;;;;;;;4.63;0.57;;;;;;;;;;4991330;28;20058;-49
2022/08/04 13:37:50;;;;;;;3.03;0.47;;;;;;;;;;4990082;28;20069;-47
2022/08/04 13:40:21;;;;;;;3.63;0.60;;;;;;;;;;4994300;28;20046;-46
2022/08/04 13:42:51;;;;;;;3.78;0.90;;;;;;;;;;4989137;28;20052;-46
2022/08/04 13:45:20;;;;;;;3.33;0.70;;;;;;;;;;4997076;28;20535;-46
2022/08/04 13:47:48;;;;;;;3.35;0.60;;;;;;;;;;4986220;28;20065;-53
2022/08/04 13:50:17;;;;;;;4.27;0.80;;;;;;;;;;4995239;28;20089;-49
2022/08/04 13:52:44;;;;;;;3.85;0.88;;;;;;;;;;5005546;28;20099;-47
2022/08/04 13:55:19;;;;;;;2.90;0.60;;;;;;;;;;5028128;28;20405;-47
2022/08/04 13:57:47;;;;;;;4.18;0.70;;;;;;;;;;5012556;28;20041;-49
2022/08/04 14:00:15;;;;;;;3.50;0.60;;;;;;;;;;5023294;28;20041;-47
2022/08/04 14:02:44;;;;;;;5.87;0.90;;;;;;;;;;5012311;28;20030;-48
2022/08/04 14:05:14;;;;;;;4.95;0.73;;;;;;;;;;5015330;28;20064;-48
2022/08/04 14:07:42;;;;;;;5.22;0.70;;;;;;;;;;5016128;28;20060;-46
2022/08/04 14:10:12;;;;;;;3.47;0.60;;;;;;;;;;5026159;28;20072;-46
2022/08/04 14:12:44;;;;;;;2.78;0.70;;;;;;;;;;5015604;28;20041;-45
2022/08/04 14:15:29;;;;;;;4.67;0.70;;;;;;;;;;5023840;28;20038;-48
2022/08/04 14:18:15;;;;;;;4.53;0.70;;;;;;;;;;5015186;28;20061;-47
2022/08/04 14:20:57;;;;;;;3.35;0.60;;;;;;;;;;4999608;28;20041;-49
2022/08/04 14:23:24;;;;;;;6.82;0.80;;;;;;;;;;5018365;28;20049;-48
2022/08/04 14:25:51;;;;;;;5.80;0.63;;;;;;;;;;5007198;28;20045;-49
2022/08/04 14:28:27;;;;;;;2.93;0.80;;;;;;;;;;5019069;28;20048;-49
2022/08/04 14:31:08;;;;;;;4.43;0.90;;;;;;;;;;5018684;28;20076;-49
2022/08/04 14:33:38;;;;;;;3.75;1.10;;;;;;;;;;5023936;28;20123;-50
2022/08/04 14:36:05;;;;;;;3.88;0.63;;;;;;;;;;5020116;28;20044;-50
2022/08/04 14:38:46;;;;;;;3.08;0.60;;;;;;;;;;5024904;28;20055;-53
2022/08/04 14:41:12;;;;;;;3.87;0.60;;;;;;;;;;5031127;28;20037;-47
2022/08/04 14:43:43;;;;;;;4.70;0.73;;;;;;;;;;5023639;28;20046;-50
2022/08/04 14:46:10;;;;;;;4.43;1.48;;;;;;;;;;5018109;28;20073;-48
2022/08/04 14:48:42;;;;;;;3.58;0.70;;;;;;;;;;5026033;28;20047;-51
2022/08/04 14:51:15;;;;;;;2.85;0.75;;;;;;;;;;5013686;28;20049;-51
2022/08/04 14:53:47;;;;;;;3.33;0.60;;;;;;;;;;5024653;28;20045;-48
2022/08/04 14:56:14;;;;;;;3.35;0.50;;;;;;;;;;5020702;28;20067;-52
2022/08/04 14:58:40;;;;;;;3.88;0.93;;;;;;;;;;5017934;28;20072;-49
2022/08/04 15:01:07;;;;;;;4.18;0.70;;;;;;;;;;5023634;28;20095;-49
2022/08/04 15:03:34;;;;;;;3.53;0.93;;;;;;;;;;4666538;28;10000312;-50
2022/08/04 15:06:02;;;;;;;2.93;0.67;;;;;;;;;;5022525;28;20072;-49
2022/08/04 15:08:29;;;;;;;2.70;0.52;;;;;;;;;;5014338;28;20403;-47